createdAt,value
2019-04-06T00:07:11.832Z,19.37
2019-04-06T00:12:14.489Z,19.63
2019-04-06T00:14:42.931Z,19.23
2019-04-06T00:17:11.316Z,19.97
2019-04-06T00:19:39.719Z,19.73
2019-04-06T00:24:42.415Z,20.70
2019-04-06T00:27:30.233Z,21.37
2019-04-06T00:29:58.630Z,21.57
2019-04-06T00:32:46.262Z,19.83
2019-04-06T00:35:33.996Z,19.90
2019-04-06T00:38:02.462Z,20.13
2019-04-06T00:40:30.885Z,20.73
2019-04-06T00:42:59.357Z,21.27
2019-04-06T00:48:21.325Z,18.83
2019-04-06T00:50:49.744Z,18.73
2019-04-06T00:53:18.151Z,18.07
2019-04-06T00:55:55.046Z,20.37
2019-04-06T00:58:16.719Z,17.97
2019-04-06T01:00:57.327Z,19.33
2019-04-06T01:05:59.713Z,18.33
2019-04-06T01:08:28.123Z,19.00
2019-04-06T01:13:30.784Z,18.90
2019-04-06T01:18:53.487Z,18.67
2019-04-06T01:21:41.013Z,18.63
2019-04-06T01:26:43.584Z,18.40
2019-04-06T01:31:46.021Z,19.57
2019-04-06T01:34:14.429Z,18.43
2019-04-06T01:36:42.893Z,17.93
2019-04-06T01:39:11.281Z,18.67
2019-04-06T01:41:59.108Z,17.93
2019-04-06T01:44:27.505Z,19.17
2019-04-06T01:46:55.897Z,18.50
2019-04-06T01:51:58.768Z,19.03
2019-04-06T01:54:27.219Z,19.60
2019-04-06T01:56:57.734Z,18.80
2019-04-06T01:59:26.179Z,19.27
2019-04-06T02:07:44.376Z,17.40
2019-04-06T02:10:52.800Z,17.87
2019-04-06T02:13:21.211Z,16.47
2019-04-06T02:15:49.619Z,17.13
2019-04-06T02:20:51.981Z,17.43
2019-04-06T02:23:20.380Z,17.97
2019-04-06T02:25:48.844Z,17.63
2019-04-06T02:28:17.242Z,18.10
2019-04-06T02:33:53.859Z,18.37
2019-04-06T02:36:41.382Z,17.50
2019-04-06T02:39:29.027Z,18.33
2019-04-06T02:42:37.409Z,18.00
2019-04-06T02:45:45.731Z,18.40
2019-04-06T02:48:14.114Z,16.47
2019-04-06T02:50:42.515Z,16.93
2019-04-06T02:55:44.637Z,15.47
2019-04-06T03:01:06.654Z,14.03
2019-04-06T03:03:47.218Z,14.43
2019-04-06T03:06:34.946Z,12.93
2019-04-06T03:11:56.546Z,13.20
2019-04-06T03:16:58.768Z,12.50
2019-04-06T03:19:27.293Z,13.73
2019-04-06T03:21:55.652Z,13.50
2019-04-06T03:24:24.060Z,14.27
2019-04-06T03:27:00.982Z,13.17
2019-04-06T03:29:22.706Z,13.67
2019-04-06T03:32:31.133Z,13.90
2019-04-06T03:35:20.470Z,15.00
2019-04-06T03:37:48.916Z,14.63
2019-04-06T03:40:36.621Z,15.17
2019-04-06T03:45:39.346Z,15.83
2019-04-06T03:48:07.771Z,17.17
2019-04-06T03:50:36.177Z,15.00
2019-04-06T03:53:23.936Z,15.53
2019-04-06T03:55:52.363Z,18.67
2019-04-06T03:58:20.757Z,18.03
2019-04-06T04:03:23.182Z,16.57
2019-04-06T04:06:03.416Z,17.57
2019-04-06T04:08:31.998Z,18.20
2019-04-06T04:11:01.961Z,16.03
2019-04-06T04:21:33.215Z,17.23
2019-04-06T04:24:01.904Z,17.83
2019-04-06T04:29:39.984Z,17.67
2019-04-06T04:32:10.032Z,15.17
2019-04-06T04:34:38.563Z,14.37
2019-04-06T04:39:43.015Z,15.80
2019-04-06T04:42:11.459Z,16.30
2019-04-06T04:44:39.854Z,16.40
2019-04-06T04:47:08.382Z,17.90
2019-04-06T04:49:38.438Z,17.67
2019-04-06T04:52:06.836Z,16.07
2019-04-06T04:54:35.247Z,16.17
2019-04-06T04:57:03.773Z,16.93
2019-04-06T04:59:32.157Z,16.73
2019-04-06T05:02:00.574Z,16.20
2019-04-06T05:04:29.001Z,16.47
2019-04-06T05:07:09.368Z,18.40
2019-04-06T05:12:11.393Z,18.00
2019-04-06T05:15:19.941Z,18.60
2019-04-06T05:17:48.287Z,19.47
2019-04-06T05:20:16.685Z,20.70
2019-04-06T05:22:45.121Z,18.93
2019-04-06T05:25:13.673Z,18.27
2019-04-06T05:27:51.233Z,18.27
2019-04-06T05:30:52.178Z,16.30
2019-04-06T05:33:20.580Z,17.03
2019-04-06T05:35:49.019Z,19.47
2019-04-06T05:40:51.084Z,19.00
2019-04-06T05:43:19.500Z,18.40
2019-04-06T05:45:48.021Z,19.33
2019-04-06T05:48:16.590Z,19.77
2019-04-06T05:50:46.545Z,17.87
2019-04-06T05:53:14.976Z,17.50
2019-04-06T05:55:43.404Z,16.77
2019-04-06T05:58:11.888Z,18.07
2019-04-06T06:03:15.466Z,18.70
2019-04-06T06:08:18.597Z,19.27
2019-04-06T06:13:21.455Z,21.40
2019-04-06T06:15:51.453Z,20.40
2019-04-06T06:18:26.471Z,19.97
2019-04-06T06:20:50.008Z,19.83
2019-04-06T06:23:18.444Z,19.27
2019-04-06T06:25:46.930Z,20.07
2019-04-06T06:28:15.637Z,20.90
2019-04-06T06:30:45.479Z,18.73
2019-04-06T06:33:13.889Z,19.30
2019-04-06T06:35:42.294Z,17.90
2019-04-06T06:40:45.174Z,20.37
2019-04-06T06:43:13.646Z,18.57
2019-04-06T06:45:41.995Z,18.57
2019-04-06T06:48:10.463Z,19.23
2019-04-06T06:50:38.907Z,18.47
2019-04-06T06:53:07.311Z,18.43
2019-04-06T06:55:35.701Z,17.20
2019-04-06T06:58:25.632Z,17.87
2019-04-06T07:00:53.441Z,16.33
2019-04-06T07:03:21.893Z,17.43
2019-04-06T07:08:24.077Z,20.07
2019-04-06T07:11:05.017Z,15.63
2019-04-06T07:13:33.426Z,16.60
2019-04-06T07:16:02.146Z,16.90
2019-04-06T07:21:25.586Z,18.80
2019-04-06T07:23:54.037Z,19.63
2019-04-06T07:26:22.441Z,19.87
2019-04-06T07:28:50.851Z,20.43
2019-04-06T07:34:04.823Z,18.33
2019-04-06T07:38:57.722Z,19.17
2019-04-06T07:43:59.747Z,19.07
2019-04-06T07:46:28.209Z,19.90
2019-04-06T07:49:07.460Z,21.10
2019-04-06T07:51:46.168Z,20.47
2019-04-06T07:54:14.763Z,19.83
2019-04-06T07:56:44.706Z,29.67
2019-04-06T07:59:13.137Z,20.27
2019-04-06T08:01:41.532Z,21.93
2019-04-06T08:04:09.937Z,23.00
2019-04-06T08:09:12.064Z,29.10
2019-04-06T08:11:40.463Z,26.07
2019-04-06T08:14:08.895Z,25.20
2019-04-06T08:16:37.323Z,25.00
2019-04-06T08:19:05.726Z,31.03
2019-04-06T08:24:10.452Z,28.97
2019-04-06T08:26:39.088Z,26.27
2019-04-06T08:29:09.052Z,27.30
2019-04-06T08:31:37.467Z,28.57
2019-04-06T08:34:06.045Z,28.10
2019-04-06T08:36:36.016Z,24.53
2019-04-06T08:39:44.658Z,26.67
2019-04-06T08:42:13.122Z,29.00
2019-04-06T08:44:44.605Z,26.93
2019-04-06T08:49:48.564Z,24.60
2019-04-06T08:54:51.661Z,27.37
2019-04-06T08:59:55.642Z,25.27
2019-04-06T09:02:24.242Z,25.83
2019-04-06T09:05:13.622Z,26.27
2019-04-06T09:07:43.536Z,24.53
2019-04-06T09:13:20.104Z,24.57
2019-04-06T09:15:48.506Z,24.50
2019-04-06T09:18:16.953Z,22.17
2019-04-06T09:23:39.630Z,29.07
2019-04-06T09:26:08.033Z,22.40
2019-04-06T09:28:36.443Z,25.20
2019-04-06T09:31:44.871Z,27.17
2019-04-06T09:34:13.387Z,24.70
2019-04-06T09:36:41.886Z,27.53
2019-04-06T09:39:10.315Z,26.37
2019-04-06T09:41:38.682Z,24.90
2019-04-06T09:44:26.391Z,25.23
2019-04-06T09:47:13.929Z,28.43
2019-04-06T09:50:20.815Z,25.40
2019-04-06T09:55:57.465Z,23.60
2019-04-06T10:01:54.905Z,22.93
2019-04-06T10:04:42.470Z,21.63
2019-04-06T10:07:30.025Z,22.93
2019-04-06T10:10:17.568Z,20.00
2019-04-06T10:13:05.272Z,21.33
2019-04-06T10:15:52.831Z,23.37
2019-04-06T10:18:40.470Z,23.67
2019-04-06T10:21:28.001Z,20.43
2019-04-06T10:24:15.571Z,22.60
2019-04-06T10:27:05.839Z,22.70
2019-04-06T10:29:53.430Z,23.53
2019-04-06T10:35:49.389Z,20.53
2019-04-06T10:38:37.152Z,20.57
2019-04-06T10:44:00.319Z,20.77
2019-04-06T10:46:47.854Z,16.97
2019-04-06T10:49:35.491Z,17.23
2019-04-06T10:55:50.459Z,17.00
2019-04-06T10:58:38.009Z,19.50
2019-04-06T11:01:25.641Z,19.93
2019-04-06T11:04:13.170Z,17.27
2019-04-06T11:07:00.806Z,15.37
2019-04-06T11:12:37.424Z,18.27
2019-04-06T11:15:45.754Z,17.63
2019-04-06T11:18:33.386Z,20.00
2019-04-06T11:24:10.192Z,18.83
2019-04-06T11:26:57.965Z,16.77
2019-04-06T11:29:45.546Z,16.97
2019-04-06T11:32:33.094Z,18.97
2019-04-06T11:35:20.700Z,19.10
2019-04-06T11:38:08.234Z,16.77
2019-04-06T11:40:55.853Z,17.23
2019-04-06T11:46:32.490Z,14.53
2019-04-06T11:54:44.755Z,17.03
2019-04-06T11:57:32.281Z,17.60
2019-04-06T12:00:26.401Z,17.43
2019-04-06T12:05:58.444Z,18.90
2019-04-06T12:08:45.969Z,18.23
2019-04-06T12:11:34.145Z,18.40
2019-04-06T12:17:29.755Z,16.17
2019-04-06T12:20:17.311Z,14.30
2019-04-06T12:23:04.952Z,15.00
2019-04-06T12:25:52.539Z,15.93
2019-04-06T12:28:40.119Z,15.17
2019-04-06T12:31:27.753Z,13.23
2019-04-06T12:34:15.449Z,14.80
2019-04-06T12:37:02.981Z,15.27
2019-04-06T12:42:25.990Z,14.23
2019-04-06T12:45:13.832Z,14.20
2019-04-06T12:48:01.778Z,15.73
2019-04-06T12:50:49.573Z,15.53
2019-04-06T12:53:37.476Z,14.67
2019-04-06T12:56:25.045Z,15.87
2019-04-06T13:01:48.188Z,16.20
2019-04-06T13:04:35.988Z,14.63
2019-04-06T13:07:43.196Z,11.70
2019-04-06T13:10:51.534Z,14.10
2019-04-06T13:13:39.118Z,13.03
2019-04-06T13:16:26.725Z,14.20
2019-04-06T13:19:14.366Z,12.83
2019-04-06T13:27:26.719Z,14.33
2019-04-06T13:30:14.289Z,19.17
2019-04-06T13:33:01.888Z,15.00
2019-04-06T13:35:49.415Z,15.57
2019-04-06T13:38:36.974Z,15.87
2019-04-06T13:41:24.502Z,11.57
2019-04-06T13:44:12.057Z,11.83
2019-04-06T13:49:48.718Z,14.17
2019-04-06T13:55:46.329Z,12.47
2019-04-06T14:01:25.085Z,13.60
2019-04-06T14:04:14.341Z,18.27
2019-04-06T14:07:01.911Z,12.97
2019-04-06T14:09:49.451Z,15.67
2019-04-06T14:12:37.098Z,12.03
2019-04-06T14:15:45.505Z,11.10
2019-04-06T14:18:33.090Z,11.30
2019-04-06T14:21:20.999Z,11.00
2019-04-06T14:26:47.392Z,11.23
2019-04-06T14:29:42.591Z,14.73
2019-04-06T14:32:30.164Z,11.87
2019-04-06T14:35:17.948Z,9.87
2019-04-06T14:40:40.750Z,9.67
2019-04-06T14:43:28.285Z,9.77
2019-04-06T14:46:15.924Z,10.17
2019-04-06T14:49:13.555Z,11.00
2019-04-06T14:51:52.737Z,9.20
2019-04-06T14:57:29.672Z,9.37
2019-04-06T15:00:17.226Z,8.77
2019-04-06T15:03:04.771Z,8.77
2019-04-06T15:05:52.925Z,9.17
2019-04-06T15:08:40.501Z,10.17
2019-04-06T15:11:28.124Z,10.50
2019-04-06T15:14:16.007Z,9.77
2019-04-06T15:17:03.524Z,9.97
2019-04-06T15:19:51.698Z,10.03
2019-04-06T15:22:39.223Z,10.63
2019-04-06T15:30:44.933Z,10.80
2019-04-06T15:36:21.637Z,11.63
2019-04-06T15:39:09.109Z,10.47
2019-04-06T15:44:32.521Z,11.00
2019-04-06T15:47:20.373Z,11.53
2019-04-06T15:50:08.131Z,11.90
2019-04-06T15:52:55.958Z,9.33
2019-04-06T15:58:18.973Z,9.63
2019-04-06T16:01:06.500Z,8.37
2019-04-06T16:03:54.392Z,9.70
2019-04-06T16:06:42.168Z,9.53
2019-04-06T16:12:08.743Z,9.83
2019-04-06T16:14:56.284Z,7.53
2019-04-06T16:17:43.915Z,9.40
2019-04-06T16:20:31.571Z,8.57
2019-04-06T16:23:19.274Z,8.80
2019-04-06T16:26:06.739Z,6.53
2019-04-06T16:28:54.425Z,6.47
2019-04-06T16:31:41.952Z,6.33
2019-04-06T16:34:30.021Z,6.13
2019-04-06T16:37:17.531Z,6.43
2019-04-06T16:40:05.077Z,6.83
2019-04-06T16:42:52.608Z,5.53
2019-04-06T16:45:40.167Z,6.00
2019-04-06T16:48:27.792Z,4.63
2019-04-06T16:51:15.396Z,5.07
2019-04-06T16:54:02.996Z,4.90
2019-04-06T16:56:50.662Z,4.53
2019-04-06T16:59:38.264Z,4.03
2019-04-06T17:02:26.141Z,4.03
2019-04-06T17:08:10.714Z,4.58
2019-04-06T17:10:52.159Z,4.77
2019-04-06T17:13:39.751Z,3.83
2019-04-06T17:16:27.272Z,4.37
2019-04-06T17:19:14.921Z,10.53
2019-04-06T17:22:02.443Z,76.27
2019-04-06T17:24:50.290Z,80.57
2019-04-06T17:33:02.755Z,4.40
2019-04-06T17:35:50.302Z,4.50
2019-04-06T17:38:37.878Z,5.10
2019-04-06T17:41:25.413Z,7.53
2019-04-06T17:44:12.986Z,5.57
2019-04-06T17:47:00.513Z,7.43
2019-04-06T17:49:48.465Z,6.13
2019-04-06T17:52:35.938Z,6.77
2019-04-06T17:55:44.598Z,9.50
2019-04-06T17:58:33.584Z,4.20
2019-04-06T18:01:21.153Z,4.67
2019-04-06T18:04:08.751Z,3.80
2019-04-06T18:06:56.637Z,4.03
2019-04-06T18:09:44.097Z,4.07
2019-04-06T18:14:48.754Z,3.73
2019-04-06T18:17:18.165Z,3.50
2019-04-06T18:19:47.065Z,3.13
2019-04-06T18:24:51.494Z,3.40
2019-04-06T18:27:21.595Z,5.47
2019-04-06T18:29:51.360Z,4.87
2019-04-06T18:32:38.913Z,4.30
2019-04-06T18:35:27.185Z,4.73
2019-04-06T18:40:35.980Z,5.40
2019-04-06T18:43:06.261Z,4.87
2019-04-06T18:45:35.879Z,5.60
2019-04-06T18:48:04.299Z,4.97
2019-04-06T18:50:36.532Z,5.27
2019-04-06T18:53:02.818Z,5.07
2019-04-06T18:58:24.498Z,5.03
2019-04-06T19:00:52.932Z,5.00
2019-04-06T19:03:21.334Z,4.80
2019-04-06T19:06:08.956Z,4.73
2019-04-06T19:08:37.592Z,6.20
2019-04-06T19:11:07.483Z,5.90
2019-04-06T19:13:36.380Z,5.13
2019-04-06T19:16:06.156Z,5.07
2019-04-06T19:18:35.069Z,5.23
2019-04-06T19:21:44.669Z,4.80
2019-04-06T19:24:13.805Z,5.37
2019-04-06T19:26:43.434Z,5.70
2019-04-06T19:29:54.180Z,5.30
2019-04-06T19:32:23.945Z,4.87
2019-04-06T19:34:52.859Z,5.00
2019-04-06T19:39:56.836Z,5.27
2019-04-06T19:45:00.488Z,6.37
2019-04-06T19:47:48.390Z,4.90
2019-04-06T19:50:37.546Z,5.30
2019-04-06T19:56:01.076Z,5.33
2019-04-06T19:58:29.472Z,5.63
2019-04-06T20:01:17.589Z,3.97
2019-04-06T20:04:05.246Z,4.60
2019-04-06T20:09:47.612Z,4.50
2019-04-06T20:12:16.043Z,3.60
2019-04-06T20:14:44.480Z,4.60
2019-04-06T20:17:13.257Z,4.07
2019-04-06T20:22:16.918Z,4.03
2019-04-06T20:27:18.975Z,4.40
2019-04-06T20:29:47.368Z,4.37
2019-04-06T20:35:02.183Z,4.50
2019-04-06T20:40:44.675Z,4.47
2019-04-06T20:43:33.526Z,4.60
2019-04-06T20:46:01.935Z,5.00
2019-04-06T20:48:30.363Z,4.90
2019-04-06T20:50:58.764Z,4.57
2019-04-06T20:53:27.642Z,5.20
2019-04-06T20:55:57.497Z,4.93
2019-04-06T21:01:21.149Z,4.90
2019-04-06T21:03:59.823Z,4.60
2019-04-06T21:06:59.939Z,4.60
2019-04-06T21:12:03.719Z,4.20
2019-04-06T21:14:32.572Z,4.47
2019-04-06T21:17:02.545Z,4.73
2019-04-06T21:19:32.445Z,4.30
2019-04-06T21:24:34.331Z,4.23
2019-04-06T21:27:23.953Z,4.40
2019-04-06T21:29:54.375Z,4.57
2019-04-06T21:32:24.097Z,5.37
2019-04-06T21:34:52.544Z,4.70
2019-04-06T21:37:21.152Z,4.17
2019-04-06T21:39:51.063Z,4.80
2019-04-06T21:42:19.818Z,4.77
2019-04-06T21:44:50.293Z,4.60
2019-04-06T21:47:19.785Z,5.27
2019-04-06T21:50:08.130Z,5.10
2019-04-06T21:52:38.691Z,5.30
2019-04-06T21:55:48.323Z,5.80
2019-04-06T21:58:17.907Z,5.73
2019-04-06T22:03:36.419Z,5.40
2019-04-06T22:06:45.447Z,5.17
2019-04-06T22:11:49.362Z,5.73
2019-04-06T22:14:17.781Z,5.50
2019-04-06T22:17:06.302Z,5.87
2019-04-06T22:19:36.292Z,5.57
2019-04-06T22:22:44.722Z,5.40
2019-04-06T22:25:32.439Z,5.63
2019-04-06T22:35:49.822Z,6.20
2019-04-06T22:38:18.243Z,7.10
2019-04-06T22:40:46.645Z,6.37
2019-04-06T22:43:15.032Z,5.80
2019-04-06T22:45:43.784Z,6.80
2019-04-06T22:48:13.727Z,6.43
2019-04-06T22:50:42.158Z,5.80
2019-04-06T22:55:44.591Z,5.47
2019-04-06T23:01:07.864Z,7.83
2019-04-06T23:03:56.126Z,6.03
2019-04-06T23:06:43.598Z,6.30
2019-04-06T23:12:06.476Z,7.50
2019-04-06T23:14:36.758Z,6.03
2019-04-06T23:17:06.464Z,5.47
2019-04-06T23:22:09.326Z,5.70
2019-04-06T23:25:17.678Z,5.57
2019-04-06T23:27:46.076Z,5.37
2019-04-06T23:30:33.946Z,5.60
2019-04-06T23:33:03.952Z,5.57
2019-04-06T23:35:32.333Z,6.20
2019-04-06T23:40:35.218Z,7.30
2019-04-06T23:43:04.086Z,6.90
2019-04-06T23:45:34.370Z,6.53
2019-04-06T23:48:04.405Z,6.97
2019-04-06T23:50:34.593Z,6.00
2019-04-06T23:53:04.273Z,5.77
2019-04-06T23:55:32.762Z,5.13
